Time;durP1;ratioP1;P1;durP2;ratioP2;P2;SDS_P1;SDS_P2;PMS_P1;PMS_P2;Temp;Humidity;BMP_temperature;BMP_pressure;BME280_temperature;BME280_humidity;BME280_pressure;Samples;Min_cycle;Max_cycle;Signal;HPM_P1;HPM_P2
2021/07/05 00:01:23;;;;;;;12.60;11.50;;;20.40;99.90;;;;;;5036380;28;20498;-79
2021/07/05 00:03:50;;;;;;;12.60;11.50;;;20.30;99.90;;;;;;5035353;28;20500;-78
2021/07/05 00:06:17;;;;;;;12.57;11.47;;;20.30;99.90;;;;;;5037231;28;20482;-78
2021/07/05 00:08:43;;;;;;;12.43;11.23;;;20.30;99.90;;;;;;5037492;28;20442;-78
2021/07/05 00:11:10;;;;;;;12.40;11.30;;;20.30;99.90;;;;;;5036640;28;20494;-78
2021/07/05 00:13:38;;;;;;;13.43;12.33;;;20.30;99.90;;;;;;5035637;28;20447;-76
2021/07/05 00:16:05;;;;;;;12.97;11.80;;;20.30;99.90;;;;;;5034524;28;20516;-76
2021/07/05 00:18:32;;;;;;;13.10;12.00;;;20.30;99.90;;;;;;5034277;28;20505;-76
2021/07/05 00:20:58;;;;;;;13.33;12.17;;;20.20;99.90;;;;;;5034872;28;20494;-77
2021/07/05 00:23:25;;;;;;;16.23;12.37;;;20.10;99.90;;;;;;5034322;28;20446;-77
2021/07/05 00:25:52;;;;;;;13.60;12.30;;;20.10;99.90;;;;;;5033864;28;20478;-77
2021/07/05 00:28:20;;;;;;;14.53;12.30;;;20.20;99.90;;;;;;5034870;28;20459;-78
2021/07/05 00:30:49;;;;;;;12.87;11.77;;;20.20;99.90;;;;;;5033832;28;20565;-78
2021/07/05 00:33:15;;;;;;;13.97;12.77;;;20.30;99.90;;;;;;5040531;28;20458;-77
2021/07/05 00:35:42;;;;;;;13.70;12.27;;;20.10;99.90;;;;;;5040850;28;20512;-77
2021/07/05 00:38:09;;;;;;;13.67;12.37;;;20.00;99.90;;;;;;5041704;28;20526;-77
2021/07/05 00:40:35;;;;;;;14.83;13.43;;;20.00;99.90;;;;;;5042325;28;20439;-77
2021/07/05 00:43:03;;;;;;;13.80;12.50;;;19.90;99.90;;;;;;5042623;28;20477;-77
2021/07/05 00:45:30;;;;;;;14.60;13.20;;;19.90;99.90;;;;;;5042485;28;20478;-77
2021/07/05 00:47:59;;;;;;;13.30;12.10;;;19.80;99.90;;;;;;5042215;28;20466;-77
2021/07/05 00:50:27;;;;;;;14.90;13.60;;;19.80;99.90;;;;;;5040963;28;20454;-77
2021/07/05 00:52:56;;;;;;;14.37;12.87;;;19.80;99.90;;;;;;5042432;28;20451;-77
2021/07/05 00:55:24;;;;;;;14.07;12.97;;;19.70;99.90;;;;;;5042217;28;20447;-77
2021/07/05 00:57:50;;;;;;;12.83;11.73;;;19.70;99.90;;;;;;5042344;28;20929;-77
2021/07/05 01:00:19;;;;;;;13.80;12.50;;;19.70;99.90;;;;;;5040399;28;20512;-77
2021/07/05 01:02:46;;;;;;;13.90;12.63;;;19.80;99.90;;;;;;5036062;28;20481;-77
2021/07/05 01:05:15;;;;;;;13.43;12.23;;;19.80;99.90;;;;;;5034264;28;20485;-77
2021/07/05 01:07:42;;;;;;;13.80;12.60;;;19.70;99.90;;;;;;5034147;28;20873;-77
2021/07/05 01:10:11;;;;;;;14.10;12.80;;;19.60;99.90;;;;;;5033706;28;20485;-77
2021/07/05 01:12:38;;;;;;;14.20;12.90;;;19.50;99.90;;;;;;5034023;28;20553;-78
2021/07/05 01:15:06;;;;;;;15.50;14.00;;;19.50;99.90;;;;;;5034408;28;20450;-78
2021/07/05 01:17:33;;;;;;;15.63;13.77;;;19.50;99.90;;;;;;5034662;28;20454;-78
2021/07/05 01:20:00;;;;;;;14.93;13.63;;;19.60;99.90;;;;;;5035577;28;20892;-77
2021/07/05 01:22:28;;;;;;;14.07;12.67;;;19.60;99.90;;;;;;5035116;28;21004;-78
2021/07/05 01:24:54;;;;;;;15.77;14.27;;;19.50;99.90;;;;;;5034989;28;20451;-77
2021/07/05 01:27:23;;;;;;;13.90;12.70;;;19.50;99.90;;;;;;5035871;28;20529;-78
2021/07/05 01:29:49;;;;;;;16.10;14.40;;;19.50;99.90;;;;;;5035914;28;20522;-77
2021/07/05 01:32:16;;;;;;;15.77;14.30;;;19.60;99.90;;;;;;5036124;28;20880;-78
2021/07/05 01:34:43;;;;;;;14.37;13.07;;;19.60;99.90;;;;;;5037700;28;20475;-77
2021/07/05 01:37:11;;;;;;;15.67;14.10;;;19.40;99.90;;;;;;5041734;28;20464;-78
2021/07/05 01:39:39;;;;;;;14.13;12.93;;;19.40;99.90;;;;;;5040818;28;20457;-78
2021/07/05 01:42:06;;;;;;;16.03;14.43;;;19.40;99.90;;;;;;5039925;28;20470;-78
2021/07/05 01:44:33;;;;;;;15.53;14.10;;;19.40;99.90;;;;;;5040442;28;20443;-78
2021/07/05 01:46:59;;;;;;;14.40;13.10;;;19.30;99.90;;;;;;5037151;28;20527;-78
2021/07/05 01:49:27;;;;;;;16.07;14.57;;;19.20;99.90;;;;;;5034624;28;20458;-78
2021/07/05 01:51:54;;;;;;;15.60;14.10;;;19.20;99.90;;;;;;5034494;28;20877;-78
2021/07/05 01:54:20;;;;;;;14.73;13.33;;;19.20;99.90;;;;;;5034110;28;20500;-78
2021/07/05 01:56:48;;;;;;;14.40;13.20;;;19.10;99.90;;;;;;5034233;28;20471;-78
2021/07/05 01:59:15;;;;;;;15.10;13.90;;;19.20;99.90;;;;;;5034662;28;20762;-78
2021/07/05 02:01:42;;;;;;;16.50;14.90;;;19.10;99.90;;;;;;5033518;28;21014;-78
2021/07/05 02:04:09;;;;;;;16.90;15.30;;;19.10;99.90;;;;;;5033522;28;20465;-78
2021/07/05 02:06:36;;;;;;;16.77;15.00;;;19.10;99.90;;;;;;5033471;28;21022;-78
2021/07/05 02:09:06;;;;;;;15.93;14.43;;;19.10;99.90;;;;;;5035967;28;20809;-78
2021/07/05 02:11:33;;;;;;;19.00;15.27;;;19.00;99.90;;;;;;5037446;28;20466;-78
2021/07/05 02:14:01;;;;;;;16.40;14.43;;;19.00;99.90;;;;;;5037138;28;20474;-77
2021/07/05 02:16:28;;;;;;;17.30;15.67;;;19.00;99.90;;;;;;5037152;28;20509;-78
2021/07/05 02:18:54;;;;;;;17.23;15.40;;;19.10;99.90;;;;;;5037107;28;20478;-78
2021/07/05 02:21:21;;;;;;;17.37;15.73;;;19.00;99.90;;;;;;5036550;28;20497;-77
2021/07/05 02:23:48;;;;;;;16.70;14.90;;;19.00;99.90;;;;;;5037362;28;20485;-78
2021/07/05 02:26:14;;;;;;;16.10;14.60;;;18.90;99.90;;;;;;5036457;28;20543;-78
2021/07/05 02:28:41;;;;;;;17.50;15.70;;;18.90;99.90;;;;;;5036962;28;20554;-78
2021/07/05 02:31:10;;;;;;;17.67;16.00;;;18.90;99.90;;;;;;5039288;28;20913;-78
2021/07/05 02:33:37;;;;;;;16.73;15.23;;;19.00;99.90;;;;;;5038542;28;20993;-78
2021/07/05 02:36:06;;;;;;;16.50;15.10;;;18.90;99.90;;;;;;5037920;28;20811;-77
2021/07/05 02:38:34;;;;;;;17.00;15.57;;;18.90;99.90;;;;;;5042045;28;20456;-78
2021/07/05 02:41:02;;;;;;;17.73;15.93;;;18.90;99.90;;;;;;5038709;28;20466;-76
2021/07/05 02:43:29;;;;;;;17.10;15.50;;;18.90;99.90;;;;;;5036966;28;20481;-76
2021/07/05 02:45:58;;;;;;;16.40;14.90;;;18.90;99.90;;;;;;5038002;28;21002;-76
2021/07/05 02:48:28;;;;;;;17.43;15.40;;;18.90;99.90;;;;;;5037509;28;20468;-78
2021/07/05 02:50:58;;;;;;;18.40;16.70;;;18.90;99.90;;;;;;5037020;28;20470;-78
2021/07/05 02:53:25;;;;;;;16.90;15.33;;;19.00;99.90;;;;;;5037382;28;20446;-77
2021/07/05 02:55:53;;;;;;;16.10;14.50;;;19.10;99.90;;;;;;5038179;28;20442;-77
2021/07/05 02:58:20;;;;;;;16.20;14.83;;;19.10;99.90;;;;;;5036930;28;20568;-77
2021/07/05 03:00:48;;;;;;;17.73;16.23;;;19.20;99.90;;;;;;5036214;28;20527;-77
2021/07/05 03:03:15;;;;;;;16.60;15.10;;;19.20;99.90;;;;;;5036193;28;20450;-77
2021/07/05 03:05:44;;;;;;;18.50;16.70;;;19.00;99.90;;;;;;5036591;28;20477;-78
2021/07/05 03:08:10;;;;;;;17.33;15.53;;;19.00;99.90;;;;;;5035831;28;20453;-76
2021/07/05 03:10:40;;;;;;;17.20;15.50;;;19.40;99.90;;;;;;5035711;28;20470;-76
2021/07/05 03:13:12;;;;;;;18.53;16.70;;;19.10;99.90;;;;;;5035703;28;20485;-76
2021/07/05 03:15:39;;;;;;;17.20;15.40;;;19.10;99.90;;;;;;5035335;28;20466;-76
2021/07/05 03:18:07;;;;;;;17.43;15.60;;;19.00;99.90;;;;;;5035709;28;20499;-77
2021/07/05 03:20:35;;;;;;;17.60;16.10;;;19.00;99.90;;;;;;5034529;28;20454;-76
2021/07/05 03:23:04;;;;;;;17.83;16.33;;;19.10;99.90;;;;;;5036374;28;20489;-76
2021/07/05 03:25:33;;;;;;;17.87;16.27;;;19.00;99.90;;;;;;5037786;28;20486;-76
2021/07/05 03:28:00;;;;;;;22.53;16.40;;;18.90;99.90;;;;;;5037020;28;20521;-76
2021/07/05 03:30:28;;;;;;;16.93;15.40;;;19.10;99.90;;;;;;5037997;28;20516;-76
2021/07/05 03:32:55;;;;;;;17.53;15.50;;;18.90;99.90;;;;;;5038414;28;20892;-77
2021/07/05 03:35:23;;;;;;;16.80;15.30;;;19.00;99.90;;;;;;5036929;28;20478;-76
2021/07/05 03:37:51;;;;;;;17.77;15.97;;;19.00;99.90;;;;;;5035507;28;20437;-77
2021/07/05 03:40:23;;;;;;;17.77;16.20;;;19.00;99.90;;;;;;5035241;28;20481;-76
2021/07/05 03:42:52;;;;;;;17.17;15.63;;;19.00;99.90;;;;;;5034943;28;20527;-76
2021/07/05 03:45:21;;;;;;;16.27;14.87;;;19.00;99.90;;;;;;5035212;28;20560;-76
2021/07/05 03:47:48;;;;;;;16.73;15.20;;;18.90;99.90;;;;;;5036627;28;20521;-76
2021/07/05 03:50:16;;;;;;;17.07;15.27;;;18.90;99.90;;;;;;5036279;28;20477;-78
2021/07/05 03:52:43;;;;;;;16.43;15.03;;;19.00;99.90;;;;;;5037374;28;20466;-78
2021/07/05 03:55:14;;;;;;;16.10;14.60;;;19.10;99.90;;;;;;5037100;28;20473;-77
2021/07/05 03:57:42;;;;;;;16.80;15.30;;;19.00;99.90;;;;;;5036799;28;20465;-77
2021/07/05 04:00:11;;;;;;;16.30;14.80;;;19.00;99.90;;;;;;5037066;28;20493;-78
2021/07/05 04:02:38;;;;;;;16.10;14.67;;;19.00;99.90;;;;;;5036831;28;20501;-77
2021/07/05 04:05:05;;;;;;;16.93;15.27;;;19.00;99.90;;;;;;5037166;28;20797;-77
2021/07/05 04:07:33;;;;;;;17.20;15.57;;;19.00;99.90;;;;;;5036105;28;20843;-78
2021/07/05 04:09:59;;;;;;;15.80;14.50;;;19.10;99.90;;;;;;5036810;28;20489;-77
2021/07/05 04:12:27;;;;;;;15.43;13.70;;;19.10;99.90;;;;;;5043646;28;20478;-77
2021/07/05 04:14:55;;;;;;;16.30;14.80;;;19.10;99.90;;;;;;5044493;28;20478;-77
2021/07/05 04:17:21;;;;;;;16.97;15.50;;;19.10;99.90;;;;;;5045548;28;20616;-78
2021/07/05 04:19:48;;;;;;;16.10;14.70;;;19.10;99.90;;;;;;5044186;28;20496;-77
2021/07/05 04:22:15;;;;;;;17.27;15.57;;;19.10;99.90;;;;;;5043865;28;20959;-78
2021/07/05 04:24:42;;;;;;;17.13;15.57;;;19.20;99.90;;;;;;5039431;28;20827;-78
2021/07/05 04:27:10;;;;;;;16.07;14.70;;;19.20;99.90;;;;;;5039241;28;21062;-78
2021/07/05 04:29:37;;;;;;;16.97;15.57;;;19.20;99.90;;;;;;5038137;28;20454;-78
2021/07/05 04:32:07;;;;;;;17.27;15.53;;;19.20;99.90;;;;;;5037434;28;20470;-78
2021/07/05 04:34:33;;;;;;;18.07;16.37;;;19.20;99.90;;;;;;5039142;28;20800;-78
2021/07/05 04:37:00;;;;;;;16.87;15.37;;;19.20;99.90;;;;;;5036047;28;20477;-78
2021/07/05 04:39:27;;;;;;;17.90;16.20;;;19.20;99.90;;;;;;5035569;28;20511;-78
2021/07/05 04:41:54;;;;;;;18.40;16.70;;;19.20;99.90;;;;;;5035392;28;20516;-77
2021/07/05 04:44:20;;;;;;;17.63;16.03;;;19.20;99.90;;;;;;5034369;28;20446;-77
2021/07/05 04:46:48;;;;;;;17.60;15.80;;;19.20;99.90;;;;;;5034834;28;20509;-77
2021/07/05 04:49:17;;;;;;;16.70;15.20;;;19.20;99.90;;;;;;5033763;28;20461;-77
2021/07/05 04:51:43;;;;;;;18.07;16.17;;;19.20;99.90;;;;;;5034606;28;20479;-76
2021/07/05 04:54:10;;;;;;;18.10;16.20;;;19.20;99.90;;;;;;5035119;28;20972;-79
2021/07/05 04:56:37;;;;;;;17.23;15.57;;;19.20;99.90;;;;;;5034351;28;20917;-77
2021/07/05 04:59:05;;;;;;;17.37;15.67;;;19.30;99.90;;;;;;5034994;28;20453;-78
2021/07/05 05:01:32;;;;;;;17.37;15.57;;;19.30;99.90;;;;;;5034898;28;20474;-78
2021/07/05 05:03:58;;;;;;;15.53;14.23;;;19.30;99.90;;;;;;5034493;28;20501;-78
2021/07/05 05:06:26;;;;;;;16.53;14.73;;;19.30;99.90;;;;;;5034548;28;20484;-78
2021/07/05 05:08:54;;;;;;;16.60;15.03;;;19.30;99.90;;;;;;5034384;28;20466;-78
2021/07/05 05:11:21;;;;;;;17.90;16.20;;;19.40;99.90;;;;;;5034420;28;20908;-78
2021/07/05 05:13:48;;;;;;;16.00;14.70;;;19.40;99.90;;;;;;5034597;28;20446;-78
2021/07/05 05:16:14;;;;;;;17.27;15.83;;;19.40;99.90;;;;;;5034902;28;20509;-78
2021/07/05 05:18:41;;;;;;;20.40;16.53;;;19.50;99.90;;;;;;5036555;28;20454;-77
2021/07/05 05:21:08;;;;;;;18.47;14.80;;;19.60;99.90;;;;;;5043081;28;20462;-77
2021/07/05 05:23:36;;;;;;;16.87;15.27;;;19.70;99.90;;;;;;5043461;28;20454;-77
2021/07/05 05:26:03;;;;;;;17.10;15.50;;;19.80;99.90;;;;;;5042292;28;20441;-76
2021/07/05 05:28:31;;;;;;;18.97;16.27;;;19.90;99.90;;;;;;5042465;28;20486;-77
2021/07/05 05:30:58;;;;;;;18.90;15.27;;;20.00;99.90;;;;;;5038445;28;20478;-77
2021/07/05 05:33:24;;;;;;;15.50;14.00;;;20.10;99.90;;;;;;5042492;28;20458;-77
2021/07/05 05:35:51;;;;;;;17.00;15.40;;;20.10;99.90;;;;;;5038241;28;20469;-77
2021/07/05 05:38:18;;;;;;;17.47;15.83;;;20.00;99.90;;;;;;5042692;28;20434;-77
2021/07/05 05:40:45;;;;;;;18.20;16.50;;;20.30;99.90;;;;;;5038660;28;20897;-77
2021/07/05 05:43:12;;;;;;;15.77;14.27;;;20.00;99.90;;;;;;5036656;28;20887;-78
2021/07/05 05:45:39;;;;;;;16.83;15.40;;;20.10;99.90;;;;;;5040400;28;20478;-78
2021/07/05 05:48:06;;;;;;;16.97;15.30;;;20.20;99.90;;;;;;5039544;28;21011;-78
2021/07/05 05:50:33;;;;;;;18.73;16.70;;;20.40;99.90;;;;;;5039111;28;20450;-77
2021/07/05 05:53:00;;;;;;;17.07;14.50;;;20.20;99.90;;;;;;5038798;28;20489;-78
2021/07/05 05:55:26;;;;;;;16.13;14.70;;;20.30;99.90;;;;;;5037736;28;20537;-76
2021/07/05 05:57:54;;;;;;;15.53;14.17;;;20.30;99.90;;;;;;5037708;28;20481;-79
2021/07/05 06:00:24;;;;;;;17.70;15.73;;;20.30;99.90;;;;;;5038980;28;20473;-76
2021/07/05 06:02:51;;;;;;;16.60;14.80;;;20.40;99.90;;;;;;5037789;28;20470;-77
2021/07/05 06:05:18;;;;;;;18.53;15.20;;;20.50;99.90;;;;;;5041213;28;20839;-78
2021/07/05 06:07:49;;;;;;;16.07;14.43;;;20.50;99.90;;;;;;5040649;28;20485;-78
2021/07/05 06:10:17;;;;;;;14.17;12.80;;;20.60;99.90;;;;;;5042840;28;20800;-76
2021/07/05 06:12:43;;;;;;;14.43;13.13;;;20.80;99.90;;;;;;5039512;28;21012;-78
2021/07/05 06:15:12;;;;;;;13.37;12.17;;;20.90;99.90;;;;;;5042038;28;20446;-77
2021/07/05 06:17:39;;;;;;;13.63;12.40;;;20.90;99.90;;;;;;5043339;28;20473;-78
2021/07/05 06:20:07;;;;;;;12.73;11.57;;;21.00;99.90;;;;;;5039429;28;20457;-78
2021/07/05 06:22:39;;;;;;;13.00;11.77;;;21.00;99.90;;;;;;5039975;28;20940;-78
2021/07/05 06:25:07;;;;;;;14.40;12.93;;;20.90;99.90;;;;;;5036907;28;20892;-78
2021/07/05 06:27:34;;;;;;;13.00;11.70;;;21.00;99.90;;;;;;5037249;28;20492;-78
2021/07/05 06:30:00;;;;;;;12.60;11.30;;;21.10;99.90;;;;;;5036990;28;20457;-78
2021/07/05 06:32:28;;;;;;;12.70;11.40;;;21.10;99.90;;;;;;5036765;28;20826;-78
2021/07/05 06:34:55;;;;;;;13.00;11.60;;;21.10;99.90;;;;;;5036814;28;20447;-78
2021/07/05 06:37:22;;;;;;;11.03;10.13;;;21.20;99.90;;;;;;5037075;28;20471;-78
2021/07/05 06:39:48;;;;;;;13.83;12.33;;;21.30;99.90;;;;;;5037699;28;20513;-78
2021/07/05 06:42:16;;;;;;;12.03;11.03;;;21.40;99.90;;;;;;5036740;28;20497;-78
2021/07/05 06:44:42;;;;;;;11.70;10.73;;;21.40;99.90;;;;;;5037077;28;20474;-78
2021/07/05 06:47:09;;;;;;;11.97;10.77;;;21.40;99.90;;;;;;5039079;28;20481;-78
2021/07/05 06:49:37;;;;;;;10.87;9.97;;;21.50;99.90;;;;;;5037392;28;20490;-78
2021/07/05 06:52:04;;;;;;;11.67;10.37;;;21.40;99.90;;;;;;5037997;28;20981;-78
2021/07/05 06:54:31;;;;;;;9.90;8.97;;;21.20;99.90;;;;;;5037349;28;20450;-78
2021/07/05 06:56:57;;;;;;;10.40;9.30;;;21.20;99.90;;;;;;5037258;28;20482;-78
2021/07/05 06:59:24;;;;;;;9.90;9.10;;;21.10;99.90;;;;;;5037561;28;20471;-78
2021/07/05 07:01:50;;;;;;;11.07;10.07;;;21.00;99.90;;;;;;5037032;28;20551;-77
2021/07/05 07:04:17;;;;;;;9.53;8.63;;;21.10;99.90;;;;;;5036013;28;20447;-77
2021/07/05 07:06:48;;;;;;;9.73;8.80;;;21.20;99.90;;;;;;5035651;28;20442;-77
2021/07/05 07:09:16;;;;;;;11.73;10.13;;;21.20;99.90;;;;;;5036284;28;20423;-76
2021/07/05 07:11:42;;;;;;;10.03;8.00;;;21.30;99.90;;;;;;5037233;28;20462;-77
2021/07/05 07:14:10;;;;;;;11.00;8.77;;;21.30;99.90;;;;;;5038499;28;20473;-76
2021/07/05 07:16:41;;;;;;;9.23;8.33;;;21.20;99.90;;;;;;5036247;28;20481;-77
2021/07/05 07:19:17;;;;;;;9.33;8.40;;;21.00;99.90;;;;;;5036018;28;20901;-77
2021/07/05 07:21:47;;;;;;;8.73;7.87;;;20.80;99.90;;;;;;5036644;28;21083;-79
2021/07/05 07:24:15;;;;;;;9.43;8.57;;;20.60;99.90;;;;;;5039647;28;20434;-78
2021/07/05 07:26:42;;;;;;;9.77;8.87;;;20.60;99.90;;;;;;5036680;28;20477;-77
2021/07/05 07:29:08;;;;;;;11.77;8.03;;;20.60;99.90;;;;;;5043467;28;20575;-77
2021/07/05 07:31:35;;;;;;;12.50;8.03;;;20.60;99.90;;;;;;5045949;28;20479;-77
2021/07/05 07:34:03;;;;;;;7.80;7.20;;;20.50;99.90;;;;;;5043769;28;20512;-76
2021/07/05 07:36:29;;;;;;;9.20;8.40;;;20.50;99.90;;;;;;5038860;28;20536;-79
2021/07/05 07:39:03;;;;;;;8.67;7.87;;;20.50;99.90;;;;;;5038211;28;20447;-79
2021/07/05 07:41:31;;;;;;;8.60;7.80;;;20.40;99.90;;;;;;5038090;28;20481;-78
2021/07/05 07:43:59;;;;;;;8.20;7.40;;;20.30;99.90;;;;;;5037987;28;20531;-78
2021/07/05 07:46:25;;;;;;;8.53;7.73;;;20.20;99.90;;;;;;5037237;28;20454;-80
2021/07/05 07:48:52;;;;;;;9.03;8.27;;;20.10;99.90;;;;;;5037608;28;20512;-77
2021/07/05 07:51:18;;;;;;;7.77;7.17;;;20.10;99.90;;;;;;5039507;28;20463;-79
2021/07/05 07:53:45;;;;;;;7.90;7.20;;;20.10;99.90;;;;;;5037801;28;20454;-78
2021/07/05 07:56:13;;;;;;;9.10;7.93;;;20.10;99.90;;;;;;5041133;28;20453;-79
2021/07/05 07:58:39;;;;;;;8.60;7.80;;;20.00;99.90;;;;;;5036960;28;20489;-78
2021/07/05 08:01:07;;;;;;;15.77;12.30;;;19.80;99.90;;;;;;5037534;28;20879;-77
2021/07/05 08:03:33;;;;;;;26.43;16.77;;;19.50;99.90;;;;;;5036841;28;20489;-77
2021/07/05 08:06:01;;;;;;;59.57;32.90;;;19.40;99.90;;;;;;5037369;28;20500;-78
2021/07/05 08:08:27;;;;;;;59.20;36.23;;;19.10;99.90;;;;;;5036698;28;20496;-78
2021/07/05 08:10:54;;;;;;;41.47;25.23;;;18.90;99.90;;;;;;5035332;28;20492;-78
2021/07/05 08:13:22;;;;;;;20.20;14.67;;;18.80;99.90;;;;;;5037977;28;20471;-77
2021/07/05 08:15:48;;;;;;;22.40;18.23;;;18.50;99.90;;;;;;5036415;28;20449;-79
2021/07/05 08:18:15;;;;;;;8.77;7.97;;;18.20;99.90;;;;;;5036450;28;20452;-77
2021/07/05 08:20:42;;;;;;;12.00;7.50;;;18.30;99.90;;;;;;5036727;28;20444;-78
2021/07/05 08:23:09;;;;;;;18.43;9.10;;;17.90;99.90;;;;;;5036581;28;20481;-78
2021/07/05 08:25:35;;;;;;;8.20;7.33;;;17.90;99.90;;;;;;5035962;28;20794;-78
2021/07/05 08:28:05;;;;;;;10.40;8.23;;;17.80;99.90;;;;;;5036426;28;20920;-78
2021/07/05 08:30:33;;;;;;;16.50;7.73;;;17.80;99.90;;;;;;5036365;28;20525;-78
2021/07/05 08:32:59;;;;;;;8.83;7.93;;;17.80;99.90;;;;;;5036124;28;20432;-77
2021/07/05 08:35:26;;;;;;;8.40;7.53;;;17.80;99.90;;;;;;5035982;28;20446;-78
2021/07/05 08:37:55;;;;;;;9.90;8.90;;;17.80;99.90;;;;;;5036452;28;20444;-78
2021/07/05 08:40:22;;;;;;;10.47;9.47;;;17.80;99.90;;;;;;5036153;28;20521;-78
2021/07/05 08:42:50;;;;;;;11.10;9.23;;;17.80;99.90;;;;;;5036403;28;20471;-78
2021/07/05 08:45:17;;;;;;;10.77;9.40;;;17.80;99.90;;;;;;5036255;28;20444;-79
2021/07/05 08:47:49;;;;;;;18.17;16.20;;;17.90;99.90;;;;;;5035492;28;21038;-79
2021/07/05 08:50:17;;;;;;;19.73;16.90;;;17.90;99.90;;;;;;5037227;28;20987;-78
2021/07/05 08:52:45;;;;;;;15.33;13.10;;;18.00;99.90;;;;;;5037010;28;20887;-79
2021/07/05 08:55:14;;;;;;;15.57;14.00;;;18.00;99.90;;;;;;5036307;28;20449;-78
2021/07/05 08:57:41;;;;;;;13.67;11.97;;;18.00;99.90;;;;;;5036743;28;20965;-78
2021/07/05 09:00:11;;;;;;;13.33;12.03;;;18.10;99.90;;;;;;5037647;28;20523;-79
2021/07/05 09:02:38;;;;;;;21.03;12.80;;;18.10;99.90;;;;;;5037132;28;20462;-76
2021/07/05 09:05:07;;;;;;;13.93;11.37;;;18.00;99.90;;;;;;5043801;28;20459;-78
2021/07/05 09:07:53;;;;;;;28.20;23.67;;;18.00;99.90;;;;;;5043338;28;20478;-78
2021/07/05 09:10:20;;;;;;;18.50;13.60;;;18.00;99.90;;;;;;5037672;28;20439;-78
2021/07/05 09:12:46;;;;;;;17.07;14.70;;;18.10;99.90;;;;;;5035388;28;20870;-78
2021/07/05 09:15:15;;;;;;;21.17;16.70;;;18.20;99.90;;;;;;5034881;28;20493;-79
2021/07/05 09:17:43;;;;;;;15.20;13.00;;;18.20;99.90;;;;;;5035080;28;20498;-79
2021/07/05 09:20:22;;;;;;;17.57;15.27;;;18.30;99.90;;;;;;5034945;28;20460;-77
2021/07/05 09:23:08;;;;;;;18.37;15.07;;;18.40;99.90;;;;;;5035317;28;20464;-78
2021/07/05 09:25:35;;;;;;;21.33;15.90;;;18.40;99.90;;;;;;5037470;28;20532;-79
2021/07/05 09:28:03;;;;;;;16.33;13.23;;;18.40;99.90;;;;;;5039169;28;20559;-77
2021/07/05 09:30:36;;;;;;;21.20;14.30;;;18.10;99.90;;;;;;5040692;28;20491;-77
2021/07/05 09:33:18;;;;;;;19.00;15.23;;;18.50;99.90;;;;;;5042653;28;20802;-78
2021/07/05 09:35:47;;;;;;;18.63;16.27;;;18.50;99.90;;;;;;5041771;28;20445;-78
2021/07/05 09:38:28;;;;;;;20.40;17.90;;;18.50;99.90;;;;;;5043193;28;20923;-77
2021/07/05 09:40:55;;;;;;;17.97;16.07;;;18.50;99.90;;;;;;5042927;28;20469;-79
2021/07/05 09:43:23;;;;;;;21.40;18.30;;;18.60;99.90;;;;;;5038861;28;20530;-77
2021/07/05 09:45:50;;;;;;;18.53;15.83;;;18.60;99.90;;;;;;5044553;28;20448;-78
2021/07/05 09:48:19;;;;;;;19.97;16.60;;;18.60;99.90;;;;;;5041647;28;20952;-77
2021/07/05 09:50:49;;;;;;;18.97;16.90;;;18.50;99.90;;;;;;5038873;28;20473;-77
2021/07/05 09:53:27;;;;;;;22.93;19.10;;;18.40;99.90;;;;;;5043210;28;20503;-78
2021/07/05 09:55:53;;;;;;;24.80;17.90;;;18.50;99.90;;;;;;5038332;28;20934;-78
2021/07/05 09:58:30;;;;;;;23.63;19.57;;;18.50;99.90;;;;;;5038083;28;20449;-77
2021/07/05 10:00:57;;;;;;;21.17;16.50;;;18.50;99.90;;;;;;5043295;28;20842;-77
2021/07/05 10:03:34;;;;;;;18.90;16.90;;;18.60;99.90;;;;;;5044547;28;20456;-78
2021/07/05 10:06:16;;;;;;;28.17;18.50;;;18.50;99.90;;;;;;5044084;28;20429;-77
2021/07/05 10:08:43;;;;;;;17.97;16.07;;;18.50;99.90;;;;;;5038825;28;20468;-78
2021/07/05 10:11:10;;;;;;;14.37;12.90;;;18.60;99.90;;;;;;5042762;28;20560;-77
2021/07/05 10:13:37;;;;;;;15.10;13.60;;;18.60;99.90;;;;;;5041994;28;20444;-77
2021/07/05 10:16:06;;;;;;;15.57;13.57;;;18.50;99.90;;;;;;5041611;28;20446;-77
2021/07/05 10:18:36;;;;;;;15.90;11.30;;;18.50;99.90;;;;;;5040060;28;20536;-78
2021/07/05 10:21:03;;;;;;;10.33;9.33;;;18.50;99.90;;;;;;5039311;28;20838;-78
2021/07/05 10:23:33;;;;;;;12.87;11.57;;;18.40;99.90;;;;;;5036150;28;20445;-77
2021/07/05 10:26:00;;;;;;;13.80;12.40;;;18.50;99.90;;;;;;5035480;28;20547;-78
2021/07/05 10:28:26;;;;;;;13.67;12.27;;;18.60;99.90;;;;;;5035029;28;20511;-78
2021/07/05 10:30:53;;;;;;;14.70;13.10;;;18.60;99.90;;;;;;5038551;28;20511;-78
2021/07/05 10:33:21;;;;;;;15.23;12.37;;;18.70;99.90;;;;;;5038687;28;20436;-77
2021/07/05 10:35:50;;;;;;;16.10;11.10;;;18.80;99.90;;;;;;5037869;28;20445;-78
2021/07/05 10:38:22;;;;;;;12.03;10.83;;;18.70;99.90;;;;;;5038668;28;20444;-76
2021/07/05 10:40:51;;;;;;;14.77;13.17;;;18.70;99.90;;;;;;5044148;28;20457;-78
2021/07/05 10:43:20;;;;;;;13.27;11.90;;;18.80;99.90;;;;;;5041503;28;20446;-77
2021/07/05 10:45:48;;;;;;;13.60;12.30;;;18.80;99.90;;;;;;5039774;28;20440;-78
2021/07/05 10:48:17;;;;;;;12.00;10.23;;;18.80;99.90;;;;;;5039215;28;20448;-77
2021/07/05 10:50:55;;;;;;;9.90;9.00;;;19.20;99.90;;;;;;5041934;28;20502;-78
2021/07/05 10:53:53;;;;;;;13.67;11.97;;;18.90;99.90;;;;;;5040014;28;20433;-78
2021/07/05 10:56:33;;;;;;;11.13;9.93;;;18.90;99.90;;;;;;5041276;28;20472;-78
2021/07/05 10:59:34;;;;;;;11.63;10.47;;;18.90;99.90;;;;;;5040732;28;20428;-79
2021/07/05 11:02:01;;;;;;;12.83;11.50;;;18.90;99.90;;;;;;5040759;28;20476;-79
2021/07/05 11:04:30;;;;;;;12.43;11.23;;;19.00;99.90;;;;;;5041694;28;20484;-78
2021/07/05 11:06:58;;;;;;;12.63;11.33;;;19.10;99.90;;;;;;5040672;28;20486;-77
2021/07/05 11:09:26;;;;;;;11.73;10.33;;;19.10;99.90;;;;;;5039328;28;20485;-78
2021/07/05 11:11:57;;;;;;;12.10;10.87;;;19.20;99.90;;;;;;5039127;28;20986;-78
2021/07/05 11:14:27;;;;;;;10.90;9.60;;;19.10;99.90;;;;;;5038504;28;20438;-79
2021/07/05 11:17:07;;;;;;;11.20;10.10;;;19.10;99.90;;;;;;5041120;28;20483;-78
2021/07/05 11:19:38;;;;;;;12.23;10.20;;;19.10;99.90;;;;;;5046288;28;20430;-79
2021/07/05 11:22:10;;;;;;;11.27;9.87;;;19.10;99.90;;;;;;5046171;28;20478;-78
2021/07/05 11:24:43;;;;;;;12.53;9.20;;;19.20;99.90;;;;;;5042300;28;20489;-77
2021/07/05 11:27:34;;;;;;;11.90;10.80;;;19.20;99.90;;;;;;5037634;28;20469;-77
2021/07/05 11:30:16;;;;;;;10.80;8.80;;;19.10;99.90;;;;;;5038373;28;20474;-78
2021/07/05 11:32:44;;;;;;;10.90;9.90;;;19.10;99.90;;;;;;5036802;28;20488;-79
2021/07/05 11:35:37;;;;;;;11.37;10.27;;;19.30;99.90;;;;;;5036093;28;20459;-77
2021/07/05 11:38:06;;;;;;;9.23;8.33;;;19.30;99.90;;;;;;5038132;28;20427;-80
2021/07/05 11:40:55;;;;;;;10.10;9.00;;;19.30;99.90;;;;;;5036642;28;20450;-78
2021/07/05 11:43:58;;;;;;;10.50;9.40;;;19.30;99.90;;;;;;5032682;28;20496;-79
2021/07/05 11:46:50;;;;;;;10.80;8.30;;;19.40;99.90;;;;;;4956003;29;20450;-78
2021/07/05 11:49:33;;;;;;;9.20;8.30;;;19.50;99.90;;;;;;4956136;29;20478;-78
2021/07/05 11:52:00;;;;;;;9.20;8.10;;;19.60;99.90;;;;;;5017475;28;20474;-76
2021/07/05 11:54:30;;;;;;;10.10;9.10;;;19.80;99.90;;;;;;5040580;28;20520;-77
2021/07/05 11:56:58;;;;;;;8.80;8.03;;;19.90;99.90;;;;;;5041693;28;20532;-78
2021/07/05 11:59:28;;;;;;;8.67;7.97;;;20.20;99.90;;;;;;5037891;28;20450;-77
2021/07/05 12:02:00;;;;;;;10.43;9.53;;;20.20;99.90;;;;;;5036704;28;20545;-78
2021/07/05 12:04:29;;;;;;;10.93;9.93;;;20.40;99.90;;;;;;5036364;28;20508;-78
2021/07/05 12:06:55;;;;;;;10.17;9.07;;;20.60;99.90;;;;;;5036356;28;20931;-78
2021/07/05 12:09:29;;;;;;;8.37;7.57;;;20.80;99.90;;;;;;5036777;28;20514;-78
2021/07/05 12:11:58;;;;;;;9.67;8.77;;;20.90;99.90;;;;;;5036496;28;20550;-78
2021/07/05 12:14:27;;;;;;;8.47;7.77;;;20.60;99.90;;;;;;5040283;28;20462;-78
2021/07/05 12:16:56;;;;;;;8.47;7.67;;;20.80;99.90;;;;;;5037249;28;20455;-78
2021/07/05 12:19:23;;;;;;;8.00;7.30;;;20.70;99.90;;;;;;5037445;28;20477;-77
2021/07/05 12:21:52;;;;;;;8.70;8.00;;;20.60;99.90;;;;;;5037787;28;20466;-78
2021/07/05 12:24:25;;;;;;;9.40;8.60;;;20.50;99.90;;;;;;5037206;28;20890;-77
2021/07/05 12:26:55;;;;;;;9.00;8.10;;;20.40;99.90;;;;;;5038561;28;20428;-79
2021/07/05 12:29:27;;;;;;;7.90;7.20;;;20.60;99.90;;;;;;5037855;28;20536;-78
2021/07/05 12:32:01;;;;;;;9.30;8.40;;;20.90;99.90;;;;;;5020788;28;20532;-79
2021/07/05 12:34:46;;;;;;;8.20;7.47;;;21.20;99.90;;;;;;5037131;28;20450;-78
2021/07/05 12:37:16;;;;;;;7.97;7.17;;;21.30;99.90;;;;;;5025089;28;20461;-77
2021/07/05 12:39:45;;;;;;;6.77;6.17;;;21.20;99.90;;;;;;5037271;28;20991;-79